sensor_id;sensor_type;location;lat;lon;timestamp;temperature;humidity
54946;DHT22;40846;44.788;20.486;2023-05-20T06:03:27;486.80;2380.80
54946;DHT22;40846;44.788;20.486;2023-05-20T06:10:48;487.30;2380.80
54946;DHT22;40846;44.788;20.486;2023-05-20T06:13:14;487.10;2380.80
54946;DHT22;40846;44.788;20.486;2023-05-20T06:15:40;487.30;2380.80
54946;DHT22;40846;44.788;20.486;2023-05-20T06:18:06;512.60;2380.80
54946;DHT22;40846;44.788;20.486;2023-05-20T06:20:31;512.40;2380.80
54946;DHT22;40846;44.788;20.486;2023-05-20T06:57:08;538.00;2406.40
54946;DHT22;40846;44.788;20.486;2023-05-20T06:59:35;537.70;2406.40
54946;DHT22;40846;44.788;20.486;2023-05-20T07:02:01;512.90;2380.80
54946;DHT22;40846;44.788;20.486;2023-05-20T07:33:41;563.30;2432.00
54946;DHT22;40846;44.788;20.486;2023-05-20T07:43:25;563.30;2432.00
54946;DHT22;40846;44.788;20.486;2023-05-20T07:53:10;563.90;2432.00
54946;DHT22;40846;44.788;20.486;2023-05-20T07:55:36;563.70;2432.00
54946;DHT22;40846;44.788;20.486;2023-05-20T08:32:16;589.00;2432.00
54946;DHT22;40846;44.788;20.486;2023-05-20T08:34:42;588.90;2432.00
54946;DHT22;40846;44.788;20.486;2023-05-20T08:44:28;589.50;2432.00
54946;DHT22;40846;44.788;20.486;2023-05-20T08:46:55;589.30;2432.00
54946;DHT22;40846;44.788;20.486;2023-05-20T08:51:48;589.40;2432.00
54946;DHT22;40846;44.788;20.486;2023-05-20T08:54:14;589.20;2432.00
54946;DHT22;40846;44.788;20.486;2023-05-20T08:56:42;589.50;2432.00
54946;DHT22;40846;44.788;20.486;2023-05-20T08:59:08;589.40;2432.00
54946;DHT22;40846;44.788;20.486;2023-05-20T09:07:12;589.70;2432.00
54946;DHT22;40846;44.788;20.486;2023-05-20T09:09:39;589.70;2432.00
54946;DHT22;40846;44.788;20.486;2023-05-20T09:12:20;614.40;2432.00
54946;DHT22;40846;44.788;20.486;2023-05-20T09:14:46;589.70;2432.00
54946;DHT22;40846;44.788;20.486;2023-05-20T09:17:12;614.40;2432.00
54946;DHT22;40846;44.788;20.486;2023-05-20T09:19:38;614.50;2432.00
54946;DHT22;40846;44.788;20.486;2023-05-20T09:22:06;614.50;2432.00
54946;DHT22;40846;44.788;20.486;2023-05-20T09:24:32;614.70;2432.00
54946;DHT22;40846;44.788;20.486;2023-05-20T09:29:32;615.20;2432.00
54946;DHT22;40846;44.788;20.486;2023-05-20T09:35:05;614.90;2432.00
54946;DHT22;40846;44.788;20.486;2023-05-20T09:37:33;615.00;2432.00
54946;DHT22;40846;44.788;20.486;2023-05-20T09:40:03;615.00;2432.00
54946;DHT22;40846;44.788;20.486;2023-05-20T09:42:39;614.90;2432.00
54946;DHT22;40846;44.788;20.486;2023-05-20T17:21:13;589.00;2099.20
54946;DHT22;40846;44.788;20.486;2023-05-20T17:23:41;564.00;2150.40
54946;DHT22;40846;44.788;20.486;2023-05-20T17:26:07;563.90;2176.00
54946;DHT22;40846;44.788;20.486;2023-05-20T17:28:32;563.90;2201.60
54946;DHT22;40846;44.788;20.486;2023-05-20T18:05:13;563.90;2124.80
54946;DHT22;40846;44.788;20.486;2023-05-20T18:07:41;563.80;2124.80
54946;DHT22;40846;44.788;20.486;2023-05-20T18:10:08;563.80;2124.80
54946;DHT22;40846;44.788;20.486;2023-05-20T18:36:57;563.50;2124.80
54946;DHT22;40846;44.788;20.486;2023-05-20T18:39:23;563.20;2150.40
54946;DHT22;40846;44.788;20.486;2023-05-20T19:06:15;538.20;2278.40
54946;DHT22;40846;44.788;20.486;2023-05-20T19:08:42;538.00;2304.00
54946;DHT22;40846;44.788;20.486;2023-05-20T19:11:07;537.90;2329.60
54946;DHT22;40846;44.788;20.486;2023-05-20T19:13:33;537.90;2355.20
54946;DHT22;40846;44.788;20.486;2023-05-20T19:15:59;537.90;2380.80
54946;DHT22;40846;44.788;20.486;2023-05-20T19:18:26;538.00;2406.40
54946;DHT22;40846;44.788;20.486;2023-05-20T19:33:04;512.90;2380.80
54946;DHT22;40846;44.788;20.486;2023-05-20T19:37:56;512.70;2380.80
54946;DHT22;40846;44.788;20.486;2023-05-20T19:40:22;512.40;2380.80
54946;DHT22;40846;44.788;20.486;2023-05-20T19:59:57;512.20;2380.80
54946;DHT22;40846;44.788;20.486;2023-05-20T20:02:26;512.00;2380.80
54946;DHT22;40846;44.788;20.486;2023-05-20T20:04:52;487.20;2380.80
54946;DHT22;40846;44.788;20.486;2023-05-20T20:07:19;487.20;2380.80
54946;DHT22;40846;44.788;20.486;2023-05-20T20:09:46;487.10;2380.80
54946;DHT22;40846;44.788;20.486;2023-05-20T20:12:13;487.20;2380.80
54946;DHT22;40846;44.788;20.486;2023-05-20T20:14:39;487.10;2380.80
54946;DHT22;40846;44.788;20.486;2023-05-20T20:17:09;487.10;2380.80
54946;DHT22;40846;44.788;20.486;2023-05-20T20:19:40;487.00;2380.80
54946;DHT22;40846;44.788;20.486;2023-05-20T20:22:07;487.00;2380.80
54946;DHT22;40846;44.788;20.486;2023-05-20T20:24:33;487.00;2380.80
54946;DHT22;40846;44.788;20.486;2023-05-20T20:27:01;487.00;2380.80
54946;DHT22;40846;44.788;20.486;2023-05-20T20:29:27;487.00;2380.80
54946;DHT22;40846;44.788;20.486;2023-05-20T20:31:53;487.00;2380.80
54946;DHT22;40846;44.788;20.486;2023-05-20T20:34:18;486.90;2380.80
54946;DHT22;40846;44.788;20.486;2023-05-20T20:36:45;487.00;2380.80
54946;DHT22;40846;44.788;20.486;2023-05-20T20:39:12;486.90;2380.80
54946;DHT22;40846;44.788;20.486;2023-05-20T20:41:48;486.90;2380.80
54946;DHT22;40846;44.788;20.486;2023-05-20T20:44:18;486.90;2380.80
54946;DHT22;40846;44.788;20.486;2023-05-20T20:46:53;486.90;2380.80
54946;DHT22;40846;44.788;20.486;2023-05-20T20:49:34;486.80;2380.80
54946;DHT22;40846;44.788;20.486;2023-05-20T20:52:09;486.80;2380.80
54946;DHT22;40846;44.788;20.486;2023-05-20T20:57:57;486.80;2380.80
54946;DHT22;40846;44.788;20.486;2023-05-20T21:00:26;486.70;2380.80
54946;DHT22;40846;44.788;20.486;2023-05-20T21:02:52;486.70;2380.80
54946;DHT22;40846;44.788;20.486;2023-05-20T21:05:18;486.60;2380.80
54946;DHT22;40846;44.788;20.486;2023-05-20T21:07:51;486.50;2380.80
54946;DHT22;40846;44.788;20.486;2023-05-20T21:13:51;486.60;2380.80
54946;DHT22;40846;44.788;20.486;2023-05-20T21:16:17;486.50;2380.80
54946;DHT22;40846;44.788;20.486;2023-05-20T21:18:43;486.60;2380.80
54946;DHT22;40846;44.788;20.486;2023-05-20T21:21:12;486.50;2380.80
54946;DHT22;40846;44.788;20.486;2023-05-20T21:23:48;486.60;2380.80
54946;DHT22;40846;44.788;20.486;2023-05-20T21:29:40;486.50;2380.80
54946;DHT22;40846;44.788;20.486;2023-05-20T21:32:06;486.50;2380.80
54946;DHT22;40846;44.788;20.486;2023-05-20T22:56:16;461.50;2380.80
54946;DHT22;40846;44.788;20.486;2023-05-20T22:58:42;461.40;2380.80
54946;DHT22;40846;44.788;20.486;2023-05-20T23:01:09;461.30;2380.80
54946;DHT22;40846;44.788;20.486;2023-05-20T23:03:35;461.20;2380.80
54946;DHT22;40846;44.788;20.486;2023-05-20T23:06:01;461.20;2380.80
54946;DHT22;40846;44.788;20.486;2023-05-20T23:08:27;461.20;2380.80
54946;DHT22;40846;44.788;20.486;2023-05-20T23:10:52;461.10;2380.80
54946;DHT22;40846;44.788;20.486;2023-05-20T23:13:18;461.10;2380.80
54946;DHT22;40846;44.788;20.486;2023-05-20T23:15:44;461.20;2380.80
54946;DHT22;40846;44.788;20.486;2023-05-20T23:18:16;461.20;2380.80
54946;DHT22;40846;44.788;20.486;2023-05-20T23:20:42;461.20;2380.80
54946;DHT22;40846;44.788;20.486;2023-05-20T23:23:08;461.10;2380.80
54946;DHT22;40846;44.788;20.486;2023-05-20T23:25:34;461.10;2380.80
54946;DHT22;40846;44.788;20.486;2023-05-20T23:28:00;461.10;2380.80
54946;DHT22;40846;44.788;20.486;2023-05-20T23:30:26;461.10;2380.80
54946;DHT22;40846;44.788;20.486;2023-05-20T23:32:52;461.10;2380.80
54946;DHT22;40846;44.788;20.486;2023-05-20T23:35:19;461.10;2380.80
54946;DHT22;40846;44.788;20.486;2023-05-20T23:37:45;461.10;2380.80
54946;DHT22;40846;44.788;20.486;2023-05-20T23:40:11;461.00;2380.80
54946;DHT22;40846;44.788;20.486;2023-05-20T23:42:38;461.10;2380.80
54946;DHT22;40846;44.788;20.486;2023-05-20T23:45:04;461.10;2380.80
54946;DHT22;40846;44.788;20.486;2023-05-20T23:47:41;461.00;2380.80
54946;DHT22;40846;44.788;20.486;2023-05-20T23:50:11;461.00;2380.80
54946;DHT22;40846;44.788;20.486;2023-05-20T23:52:38;461.10;2380.80
54946;DHT22;40846;44.788;20.486;2023-05-20T23:55:05;461.10;2380.80
54946;DHT22;40846;44.788;20.486;2023-05-20T23:57:33;461.10;2380.80
54946;DHT22;40846;44.788;20.486;2023-05-20T23:59:59;461.20;2380.80
